Time;durP1;ratioP1;P1;durP2;ratioP2;P2;SDS_P1;SDS_P2;PMS_P1;PMS_P2;Temp;Humidity;BMP_temperature;BMP_pressure;BME280_temperature;BME280_humidity;BME280_pressure;Samples;Min_cycle;Max_cycle;Signal;HPM_P1;HPM_P2
2023/12/18 00:00:16;;;;;;;7.72;3.17;;;;;;;9.35;77.45;101422.09;4958439;28;20051;-45
2023/12/18 00:02:44;;;;;;;5.15;2.95;;;;;;;9.34;77.68;101417.75;4962259;28;20047;-51
2023/12/18 00:05:11;;;;;;;2.83;2.47;;;;;;;9.30;78.09;101403.00;4963655;28;20138;-49
2023/12/18 00:07:37;;;;;;;3.53;2.92;;;;;;;9.30;78.14;101400.44;4965359;28;20508;-51
2023/12/18 00:10:05;;;;;;;5.57;2.92;;;;;;;9.34;77.84;101394.50;4961591;28;20062;-46
2023/12/18 00:12:32;;;;;;;7.75;3.50;;;;;;;9.36;77.35;101388.50;4966520;28;20058;-45
2023/12/18 00:14:58;;;;;;;9.23;3.72;;;;;;;9.38;77.61;101398.88;4968629;28;20047;-51
2023/12/18 00:17:25;;;;;;;6.75;2.47;;;;;;;9.37;77.37;101391.97;4969752;28;20053;-48
2023/12/18 00:19:52;;;;;;;7.05;2.72;;;;;;;9.38;77.51;101397.19;4970054;28;20082;-52
2023/12/18 00:22:19;;;;;;;6.55;1.83;;;;;;;9.42;77.59;101400.72;4966322;28;20440;-54
2023/12/18 00:24:46;;;;;;;8.27;3.47;;;;;;;9.44;77.69;101409.41;4967738;28;20509;-47
2023/12/18 00:27:12;;;;;;;6.72;3.25;;;;;;;9.42;77.66;101410.19;4966848;28;20054;-48
2023/12/18 00:29:39;;;;;;;6.95;3.03;;;;;;;9.46;77.11;101412.88;4966311;28;20600;-49
2023/12/18 00:32:06;;;;;;;8.00;3.13;;;;;;;9.44;77.41;101404.22;4967169;28;20042;-46
2023/12/18 00:34:33;;;;;;;6.65;3.42;;;;;;;9.46;77.41;101397.34;4965448;28;20048;-45
2023/12/18 00:37:00;;;;;;;10.75;3.72;;;;;;;9.47;77.76;101404.31;4968576;28;20047;-47
2023/12/18 00:39:26;;;;;;;8.93;3.08;;;;;;;9.44;76.79;101393.88;4966394;28;20125;-48
2023/12/18 00:41:53;;;;;;;8.88;3.45;;;;;;;9.46;77.30;101381.84;4968951;28;20069;-51
2023/12/18 00:44:20;;;;;;;7.22;3.75;;;;;;;9.46;76.85;101376.66;4966226;28;20101;-49
2023/12/18 00:46:46;;;;;;;5.05;2.17;;;;;;;9.45;77.58;101379.22;4962724;28;20046;-50
2023/12/18 00:49:13;;;;;;;6.60;3.30;;;;;;;9.45;77.42;101369.75;4961449;28;20409;-47
2023/12/18 00:51:39;;;;;;;6.72;3.03;;;;;;;9.44;77.60;101373.19;4970529;28;20055;-53
2023/12/18 00:54:07;;;;;;;5.65;2.67;;;;;;;9.46;77.47;101381.00;4967749;28;20057;-45
2023/12/18 00:56:36;;;;;;;4.68;2.55;;;;;;;9.42;77.80;101384.34;4970051;28;20086;-47
2023/12/18 00:59:03;;;;;;;4.28;3.30;;;;;;;9.45;77.53;101380.09;4970943;28;20057;-48
2023/12/18 01:01:30;;;;;;;6.00;2.55;;;;;;;9.42;77.45;101390.38;4959419;28;20057;-45
2023/12/18 01:03:56;;;;;;;8.00;2.65;;;;;;;9.40;77.23;101376.53;4970873;28;20050;-51
2023/12/18 01:06:23;;;;;;;8.88;2.67;;;;;;;9.42;77.69;101382.59;4970965;28;20086;-53
2023/12/18 01:08:50;;;;;;;15.15;4.00;;;;;;;9.43;77.44;101384.38;4972568;28;20625;-54
2023/12/18 01:11:17;;;;;;;6.85;1.45;;;;;;;9.44;77.47;101399.06;4971814;28;20518;-48
2023/12/18 01:13:43;;;;;;;10.77;4.35;;;;;;;9.44;77.46;101403.34;4969563;28;20057;-56
2023/12/18 01:16:10;;;;;;;11.13;4.18;;;;;;;9.43;77.46;101386.09;4967170;28;20058;-47
2023/12/18 01:18:37;;;;;;;6.75;3.60;;;;;;;9.43;77.47;101399.00;4968025;28;20058;-49
2023/12/18 01:21:04;;;;;;;10.82;4.70;;;;;;;9.38;77.42;101392.03;4971258;28;20047;-46
2023/12/18 01:23:31;;;;;;;7.45;3.67;;;;;;;9.42;77.42;101381.75;4965310;28;20053;-47
2023/12/18 01:25:58;;;;;;;8.27;2.80;;;;;;;9.39;77.30;101382.53;4957180;28;20055;-47
2023/12/18 01:28:25;;;;;;;9.77;2.35;;;;;;;9.38;77.79;101388.56;4968608;28;20046;-46
2023/12/18 01:30:51;;;;;;;10.63;2.90;;;;;;;9.37;77.62;101379.06;4969063;28;20423;-44
2023/12/18 01:33:18;;;;;;;6.90;3.00;;;;;;;9.36;77.42;101374.72;4966566;28;20039;-44
2023/12/18 01:35:45;;;;;;;7.53;3.30;;;;;;;9.36;77.73;101383.34;4969717;28;20504;-51
2023/12/18 01:38:12;;;;;;;5.30;2.65;;;;;;;9.32;77.63;101375.50;4965958;28;20492;-51
2023/12/18 01:40:39;;;;;;;8.13;2.55;;;;;;;9.33;77.43;101369.47;4966504;28;20070;-50
2023/12/18 01:43:26;;;;;;;2.75;2.35;;;;;;;9.29;77.31;101367.66;4965428;28;20051;-50
2023/12/18 01:45:57;;;;;;;5.38;2.35;;;;;;;9.27;77.67;101370.19;4959347;28;20062;-46
2023/12/18 01:48:25;;;;;;;7.88;2.78;;;;;;;9.30;77.66;101370.28;4968415;28;20393;-46
2023/12/18 01:50:54;;;;;;;5.18;2.40;;;;;;;9.31;77.76;101376.31;4966140;28;20061;-48
2023/12/18 01:53:27;;;;;;;3.47;2.42;;;;;;;9.26;77.41;101382.25;4968196;28;20496;-53
2023/12/18 01:55:54;;;;;;;3.75;2.22;;;;;;;9.28;77.59;101382.28;4964828;28;20571;-51
2023/12/18 01:58:21;;;;;;;3.75;2.72;;;;;;;9.29;77.62;101372.81;4966429;28;20102;-48
2023/12/18 02:00:48;;;;;;;5.72;2.85;;;;;;;9.25;77.62;101385.69;4961690;28;20061;-51
2023/12/18 02:03:16;;;;;;;8.45;2.95;;;;;;;9.26;77.84;101387.41;4962725;28;20130;-48
2023/12/18 02:05:44;;;;;;;7.22;3.13;;;;;;;9.25;77.49;101377.91;4966702;28;20051;-49
2023/12/18 02:08:10;;;;;;;9.38;3.45;;;;;;;9.23;77.47;101378.72;4963650;28;20058;-49
2023/12/18 02:10:38;;;;;;;6.50;2.67;;;;;;;9.21;77.28;101378.69;4956401;28;20050;-50
2023/12/18 02:13:04;;;;;;;5.05;2.70;;;;;;;9.22;77.59;101385.59;4961915;28;20054;-45
2023/12/18 02:15:31;;;;;;;10.73;3.53;;;;;;;9.21;77.75;101385.56;4964133;28;20050;-45
2023/12/18 02:17:58;;;;;;;4.60;2.85;;;;;;;9.19;77.95;101390.69;4963049;28;20153;-47
2023/12/18 02:20:24;;;;;;;4.80;2.92;;;;;;;9.15;77.45;101382.84;4955669;28;20066;-48
2023/12/18 02:22:51;;;;;;;8.23;2.95;;;;;;;9.18;77.47;101382.91;4957899;28;20423;-49
2023/12/18 02:25:19;;;;;;;4.70;2.40;;;;;;;9.18;77.33;101382.91;4965080;28;20047;-42
2023/12/18 02:27:49;;;;;;;11.65;2.80;;;;;;;9.19;77.46;101384.66;4967830;28;20125;-49
2023/12/18 02:30:19;;;;;;;7.38;2.80;;;;;;;9.19;77.86;101382.94;4969395;28;20058;-52
2023/12/18 02:32:46;;;;;;;5.72;3.13;;;;;;;9.20;78.03;101376.06;4967153;28;20789;-51
2023/12/18 02:35:13;;;;;;;3.83;3.28;;;;;;;9.23;77.68;101373.56;4962342;28;20070;-47
2023/12/18 02:37:40;;;;;;;7.55;2.78;;;;;;;9.24;78.09;101376.19;4960596;28;20066;-52
2023/12/18 02:40:07;;;;;;;7.60;0.98;;;;;;;9.26;78.31;101369.31;4963035;28;20483;-55
2023/12/18 02:42:34;;;;;;;6.10;2.25;;;;;;;9.26;77.85;101360.72;4961006;28;20071;-48
2023/12/18 02:45:02;;;;;;;4.15;2.60;;;;;;;9.29;77.56;101363.34;4964381;28;20051;-45
2023/12/18 02:47:29;;;;;;;5.22;2.63;;;;;;;9.32;78.14;101373.75;4962283;28;20065;-46
2023/12/18 02:49:56;;;;;;;4.97;3.03;;;;;;;9.31;78.07;101373.72;4959733;28;20043;-48
2023/12/18 02:52:23;;;;;;;9.30;2.72;;;;;;;9.35;78.26;101373.84;4966808;28;20043;-52
2023/12/18 02:54:50;;;;;;;4.53;2.92;;;;;;;9.38;77.90;101380.78;4969085;28;20051;-49
2023/12/18 02:57:16;;;;;;;6.13;3.10;;;;;;;9.40;77.75;101376.53;4965513;28;20065;-53
2023/12/18 02:59:43;;;;;;;7.60;2.67;;;;;;;9.43;77.81;101383.50;4958015;28;20513;-51
2023/12/18 03:02:09;;;;;;;7.38;2.72;;;;;;;9.46;77.67;101386.16;4954959;28;20975;-46
2023/12/18 03:04:43;;;;;;;4.20;3.03;;;;;;;9.44;78.03;101383.53;4962383;28;20127;-50
2023/12/18 03:07:11;;;;;;;5.47;2.85;;;;;;;9.49;77.79;101376.75;4963125;28;20043;-49
2023/12/18 03:09:37;;;;;;;4.80;2.45;;;;;;;9.44;77.59;101373.19;4957912;28;20057;-50
2023/12/18 03:12:05;;;;;;;6.25;2.78;;;;;;;9.48;77.84;101359.50;4964715;28;20158;-45
2023/12/18 03:14:31;;;;;;;7.57;3.25;;;;;;;9.49;77.63;101365.53;4969436;28;20125;-47
2023/12/18 03:16:58;;;;;;;4.95;2.50;;;;;;;9.50;77.50;101357.78;4961520;28;20043;-52
2023/12/18 03:19:24;;;;;;;6.47;2.38;;;;;;;9.51;77.58;101354.38;4961864;28;20051;-43
2023/12/18 03:21:51;;;;;;;10.05;1.75;;;;;;;9.46;77.87;101345.63;4959285;28;20458;-44
2023/12/18 03:24:18;;;;;;;5.95;2.92;;;;;;;9.50;77.86;101347.44;4966314;28;20057;-45
2023/12/18 03:26:48;;;;;;;4.57;3.03;;;;;;;9.53;78.09;101346.66;4963943;28;20073;-50
2023/12/18 03:29:15;;;;;;;6.32;2.80;;;;;;;9.54;78.11;101337.19;4958663;28;20046;-46
2023/12/18 03:31:41;;;;;;;7.18;3.25;;;;;;;9.56;77.62;101348.44;4960018;28;20042;-54
2023/12/18 03:34:08;;;;;;;9.05;2.88;;;;;;;9.56;77.54;101338.97;4959157;28;20047;-52
2023/12/18 03:36:35;;;;;;;7.72;2.97;;;;;;;9.56;77.37;101326.03;4963108;28;20071;-47
2023/12/18 03:39:02;;;;;;;7.13;2.75;;;;;;;9.60;77.33;101324.41;4962021;28;20051;-52
2023/12/18 03:41:28;;;;;;;8.25;2.80;;;;;;;9.57;77.28;101326.91;4960048;28;20047;-53
2023/12/18 03:43:55;;;;;;;4.47;3.17;;;;;;;9.58;78.02;101324.34;4962320;28;20054;-43
2023/12/18 03:46:22;;;;;;;4.63;2.25;;;;;;;9.63;77.52;101316.72;4958276;28;20043;-55
2023/12/18 03:48:48;;;;;;;10.00;3.65;;;;;;;9.64;77.76;101321.03;4962847;28;20423;-50
2023/12/18 03:51:15;;;;;;;5.45;2.83;;;;;;;9.64;77.42;101313.28;4966448;28;20045;-54
2023/12/18 03:53:42;;;;;;;8.60;2.40;;;;;;;9.61;77.49;101323.53;4965446;28;20423;-42
2023/12/18 03:56:08;;;;;;;6.30;2.72;;;;;;;9.62;77.28;101304.59;4962073;28;20051;-48
2023/12/18 03:58:36;;;;;;;7.22;3.17;;;;;;;9.61;77.57;101313.19;4962993;28;20050;-51
2023/12/18 04:01:03;;;;;;;5.32;2.85;;;;;;;9.63;77.61;101309.81;4961417;28;20085;-47
2023/12/18 04:03:30;;;;;;;6.53;3.03;;;;;;;9.67;77.12;101307.28;4963129;28;20523;-50
2023/12/18 04:06:00;;;;;;;4.95;0.80;;;;;;;9.67;77.71;101313.34;4958573;28;20480;-42
2023/12/18 04:08:27;;;;;;;3.72;2.75;;;;;;;9.67;78.06;101309.88;4961710;28;20046;-46
2023/12/18 04:10:53;;;;;;;8.45;2.47;;;;;;;9.67;77.65;101310.75;4960396;28;20047;-49
2023/12/18 04:13:20;;;;;;;3.35;2.65;;;;;;;9.67;77.38;101302.13;4961667;28;20511;-49
2023/12/18 04:15:47;;;;;;;3.72;2.47;;;;;;;9.66;77.54;101313.31;4964987;28;20059;-51
2023/12/18 04:18:14;;;;;;;6.28;2.88;;;;;;;9.69;77.58;101311.66;4966150;28;20046;-45
2023/12/18 04:20:40;;;;;;;9.07;2.60;;;;;;;9.70;77.16;101313.41;4967924;28;20077;-48
2023/12/18 04:23:07;;;;;;;4.47;2.38;;;;;;;9.67;76.76;101312.47;4954888;28;20055;-46
2023/12/18 04:25:34;;;;;;;6.90;2.50;;;;;;;9.66;77.32;101311.56;4966774;28;20080;-48
2023/12/18 04:28:01;;;;;;;7.43;2.38;;;;;;;9.67;77.85;101302.13;4963623;28;20495;-48
2023/12/18 04:30:27;;;;;;;3.95;2.95;;;;;;;9.69;77.71;101298.72;4963238;28;20057;-44
2023/12/18 04:32:54;;;;;;;2.65;2.45;;;;;;;9.67;77.13;101300.41;4963292;28;20138;-48
2023/12/18 04:35:21;;;;;;;6.80;2.83;;;;;;;9.67;77.18;101303.00;4957652;28;20085;-49
2023/12/18 04:37:48;;;;;;;6.05;1.92;;;;;;;9.65;77.62;101294.31;4959812;28;20633;-53
2023/12/18 04:40:15;;;;;;;5.88;2.20;;;;;;;9.66;77.74;101301.22;4963426;28;20054;-46
2023/12/18 04:42:41;;;;;;;3.92;0.63;;;;;;;9.62;77.04;101286.47;4962237;28;20498;-50
2023/12/18 04:45:09;;;;;;;3.55;2.20;;;;;;;9.64;77.38;101287.41;4965151;28;20062;-46
2023/12/18 04:47:35;;;;;;;3.88;2.35;;;;;;;9.64;77.59;101287.41;4967563;28;20054;-46
2023/12/18 04:50:02;;;;;;;4.30;3.05;;;;;;;9.63;77.63;101288.25;4967074;28;20574;-49
2023/12/18 04:52:29;;;;;;;5.57;2.90;;;;;;;9.66;77.05;101277.94;4968431;28;20420;-51
2023/12/18 04:54:56;;;;;;;4.03;2.15;;;;;;;9.66;77.29;101267.59;4969271;28;20050;-48
2023/12/18 04:57:22;;;;;;;2.97;2.47;;;;;;;9.64;77.31;101272.75;4970278;28;20050;-43
2023/12/18 04:59:49;;;;;;;2.53;1.92;;;;;;;9.61;78.11;101266.63;4966102;28;20054;-46
2023/12/18 05:02:16;;;;;;;5.38;2.08;;;;;;;9.65;77.86;101281.38;4968403;28;20047;-49
2023/12/18 05:04:43;;;;;;;7.05;2.67;;;;;;;9.67;77.68;101268.47;4970909;28;20047;-47
2023/12/18 05:07:11;;;;;;;4.90;2.60;;;;;;;9.61;77.87;101258.88;4960948;28;20053;-51
2023/12/18 05:09:39;;;;;;;6.30;2.35;;;;;;;9.63;77.54;101259.78;4966769;28;20117;-44
2023/12/18 05:12:06;;;;;;;5.18;2.15;;;;;;;9.62;77.77;101265.78;4963100;28;20131;-44
2023/12/18 05:14:33;;;;;;;7.38;2.47;;;;;;;9.64;77.59;101266.72;4966807;28;20046;-44
2023/12/18 05:17:00;;;;;;;5.63;2.88;;;;;;;9.66;77.73;101259.84;4959133;28;20051;-48
2023/12/18 05:19:26;;;;;;;5.13;3.42;;;;;;;9.65;77.70;101263.28;4968148;28;20050;-46
2023/12/18 05:21:53;;;;;;;5.30;2.17;;;;;;;9.65;78.12;101260.69;4964283;28;20126;-44
2023/12/18 05:24:20;;;;;;;2.92;2.72;;;;;;;9.70;77.52;101269.44;4965037;28;20054;-49
2023/12/18 05:26:46;;;;;;;2.22;2.03;;;;;;;9.67;77.84;101261.59;4965555;28;20082;-45
2023/12/18 05:29:14;;;;;;;8.77;2.75;;;;;;;9.68;77.19;101263.34;4960294;28;20055;-44
2023/12/18 05:31:40;;;;;;;6.35;3.38;;;;;;;9.69;77.72;101257.31;4965283;28;20046;-52
2023/12/18 05:34:07;;;;;;;3.92;2.75;;;;;;;9.72;77.56;101257.38;4965707;28;20530;-48
2023/12/18 05:36:34;;;;;;;3.30;2.47;;;;;;;9.70;77.87;101256.50;4961276;28;20505;-47
2023/12/18 05:39:01;;;;;;;5.15;1.90;;;;;;;9.70;78.07;101256.50;4968344;28;20055;-48
2023/12/18 05:41:28;;;;;;;3.30;2.28;;;;;;;9.70;77.77;101253.03;4965786;28;20050;-44
2023/12/18 05:43:54;;;;;;;6.15;2.17;;;;;;;9.70;78.10;101255.63;4964583;28;20047;-44
2023/12/18 05:46:21;;;;;;;3.22;2.63;;;;;;;9.73;78.06;101251.38;4967777;28;20542;-48
2023/12/18 05:48:48;;;;;;;3.47;0.98;;;;;;;9.72;77.81;101259.97;4967698;28;20471;-47
2023/12/18 05:51:19;;;;;;;2.92;2.35;;;;;;;9.73;77.68;101253.94;4964718;28;20047;-48
2023/12/18 05:53:46;;;;;;;8.55;2.45;;;;;;;9.73;77.94;101251.38;4969366;28;20150;-49
2023/12/18 05:56:13;;;;;;;3.15;2.40;;;;;;;9.74;77.89;101263.47;4969852;28;20529;-52
2023/12/18 05:58:40;;;;;;;7.60;2.88;;;;;;;9.74;78.14;101260.91;4966552;28;20500;-46
2023/12/18 06:01:06;;;;;;;2.75;0.52;;;;;;;9.74;77.95;101273.81;4965006;28;20693;-46
2023/12/18 06:03:33;;;;;;;6.40;3.17;;;;;;;9.75;77.91;101269.50;4970694;28;20156;-49
2023/12/18 06:06:00;;;;;;;6.60;3.13;;;;;;;9.75;77.89;101285.91;4967750;28;20388;-47
2023/12/18 06:08:27;;;;;;;3.92;0.82;;;;;;;9.75;77.94;101280.75;4965261;28;20436;-45
2023/12/18 06:10:53;;;;;;;7.43;2.97;;;;;;;9.71;78.85;101278.03;4962259;28;20094;-50
2023/12/18 06:13:20;;;;;;;3.35;2.35;;;;;;;9.77;78.53;101281.63;4968726;28;20053;-44
2023/12/18 06:15:47;;;;;;;3.70;2.47;;;;;;;9.79;78.50;101275.63;4969025;28;20047;-50
2023/12/18 06:18:13;;;;;;;4.18;2.45;;;;;;;9.76;78.15;101272.13;4965573;28;20047;-50
2023/12/18 06:20:40;;;;;;;5.10;2.30;;;;;;;9.75;77.86;101265.22;4957027;28;20087;-49
2023/12/18 06:23:07;;;;;;;3.28;2.20;;;;;;;9.77;77.97;101266.09;4962332;28;20057;-53
2023/12/18 06:25:33;;;;;;;7.03;2.22;;;;;;;9.76;77.86;101269.53;4968601;28;20047;-46
2023/12/18 06:28:00;;;;;;;6.47;2.92;;;;;;;9.76;78.40;101276.41;4962203;28;20050;-50
2023/12/18 06:30:27;;;;;;;5.93;0.93;;;;;;;9.76;78.63;101261.78;4966694;28;20460;-47
2023/12/18 06:32:53;;;;;;;5.35;2.00;;;;;;;9.76;78.60;101277.31;4963681;28;20055;-48
2023/12/18 06:35:20;;;;;;;3.45;2.63;;;;;;;9.79;78.27;101281.66;4957604;28;20039;-43
2023/12/18 06:37:47;;;;;;;5.35;2.47;;;;;;;9.76;78.03;101266.94;4962684;28;20397;-45
2023/12/18 06:40:14;;;;;;;5.03;2.60;;;;;;;9.76;77.77;101261.78;4961905;28;20051;-50
2023/12/18 06:42:40;;;;;;;7.35;2.70;;;;;;;9.80;78.15;101261.84;4965325;28;20512;-50
2023/12/18 06:45:08;;;;;;;7.35;3.05;;;;;;;9.77;78.52;101263.50;4963463;28;20079;-47
2023/12/18 06:47:34;;;;;;;7.43;3.17;;;;;;;9.79;78.07;101252.34;4963102;28;20389;-46
2023/12/18 06:50:01;;;;;;;3.40;3.10;;;;;;;9.78;78.40;101254.06;4964878;28;20619;-50
2023/12/18 06:52:28;;;;;;;3.65;2.53;;;;;;;9.77;78.47;101253.16;4959524;28;20047;-49
2023/12/18 06:54:54;;;;;;;5.55;2.67;;;;;;;9.79;78.21;101254.94;4965134;28;20054;-43
2023/12/18 06:57:21;;;;;;;10.07;3.08;;;;;;;9.77;78.23;101248.00;4962798;28;20050;-50
2023/12/18 06:59:48;;;;;;;6.22;3.38;;;;;;;9.75;78.23;101249.69;4964428;28;20051;-50
2023/12/18 07:02:14;;;;;;;3.78;2.25;;;;;;;9.75;78.08;101244.53;4965641;28;20050;-52
2023/12/18 07:04:41;;;;;;;9.43;3.88;;;;;;;9.71;78.12;101254.75;4963881;28;20500;-48
2023/12/18 07:07:08;;;;;;;5.53;2.45;;;;;;;9.70;78.77;101260.78;4962976;28;20051;-54
2023/12/18 07:09:34;;;;;;;8.75;3.35;;;;;;;9.71;78.26;101263.41;4963517;28;20058;-52
2023/12/18 07:12:02;;;;;;;6.03;3.20;;;;;;;9.71;77.94;101253.06;4956623;28;20058;-52
2023/12/18 07:14:28;;;;;;;2.13;1.92;;;;;;;9.67;78.60;101253.84;4964062;28;20086;-48
2023/12/18 07:16:55;;;;;;;5.35;2.20;;;;;;;9.70;78.38;101243.56;4955475;28;20420;-48
2023/12/18 07:19:22;;;;;;;9.13;2.40;;;;;;;9.71;78.36;101236.66;4961026;28;20053;-45
2023/12/18 07:21:49;;;;;;;3.63;0.63;;;;;;;9.70;78.72;101230.63;4963038;28;20632;-50
2023/12/18 07:24:16;;;;;;;4.88;0.70;;;;;;;9.71;78.42;101227.19;4965188;28;23059;-48
2023/12/18 07:26:43;;;;;;;5.65;2.45;;;;;;;9.69;78.71;101226.28;4961712;28;20146;-45
2023/12/18 07:29:10;;;;;;;2.53;2.22;;;;;;;9.70;78.64;101230.63;4964592;28;20197;-49
2023/12/18 07:31:37;;;;;;;7.60;4.28;;;;;;;9.74;78.89;101232.44;4962693;28;20057;-50
2023/12/18 07:34:04;;;;;;;6.15;2.88;;;;;;;9.72;78.71;101234.09;4963459;28;20051;-51
2023/12/18 07:36:35;;;;;;;4.25;2.70;;;;;;;9.70;78.87;101234.91;4961984;28;20051;-48
2023/12/18 07:39:02;;;;;;;5.20;2.70;;;;;;;9.72;79.19;101238.38;4960422;28;20101;-53
2023/12/18 07:41:30;;;;;;;3.45;2.50;;;;;;;9.68;78.59;101232.28;4964370;28;20145;-47
2023/12/18 07:43:57;;;;;;;4.50;1.90;;;;;;;9.67;79.04;101230.56;4961512;28;20054;-47
2023/12/18 07:46:24;;;;;;;6.88;2.70;;;;;;;9.63;79.59;101221.00;4958504;28;20062;-50
2023/12/18 07:48:51;;;;;;;4.43;3.13;;;;;;;9.64;79.04;101210.69;4962660;28;20050;-48
2023/12/18 07:51:18;;;;;;;4.47;4.10;;;;;;;9.60;79.96;101211.44;4966179;28;22731;-48
2023/12/18 07:53:45;;;;;;;3.58;2.13;;;;;;;9.64;79.03;101212.38;4962186;28;20618;-49
2023/12/18 07:56:11;;;;;;;4.55;2.42;;;;;;;9.65;79.29;101208.94;4961617;28;20058;-48
2023/12/18 07:58:40;;;;;;;5.78;3.80;;;;;;;9.64;79.54;101207.22;4955966;28;20121;-49
2023/12/18 08:01:07;;;;;;;3.13;2.15;;;;;;;9.62;79.96;101203.72;4961062;28;20497;-47
2023/12/18 08:03:34;;;;;;;4.18;2.20;;;;;;;9.59;79.71;101216.59;4964299;28;20050;-51
2023/12/18 08:06:00;;;;;;;6.95;3.28;;;;;;;9.60;79.68;101215.75;4957623;28;20050;-48
2023/12/18 08:08:27;;;;;;;8.93;3.95;;;;;;;9.62;79.21;101227.88;4963142;28;20051;-47
2023/12/18 08:10:54;;;;;;;8.82;3.25;;;;;;;9.62;80.10;101221.81;4954766;28;20047;-43
2023/12/18 08:13:20;;;;;;;6.05;2.92;;;;;;;9.58;80.05;101225.19;4962975;28;20043;-49
2023/12/18 08:15:47;;;;;;;2.83;1.23;;;;;;;9.58;79.83;101230.34;4961682;28;20531;-45
2023/12/18 08:18:15;;;;;;;6.07;3.60;;;;;;;9.60;79.55;101231.28;4961099;28;20058;-49
2023/12/18 08:20:43;;;;;;;3.60;2.78;;;;;;;9.60;79.84;101239.88;4964121;28;20122;-55
2023/12/18 08:23:10;;;;;;;6.35;2.63;;;;;;;9.59;80.03;101248.50;4964519;28;20057;-49
2023/12/18 08:25:37;;;;;;;4.40;2.03;;;;;;;9.58;80.46;101251.03;4960564;28;20082;-51
2023/12/18 08:28:04;;;;;;;3.80;2.35;;;;;;;9.61;79.57;101239.06;4960073;28;20086;-48
2023/12/18 08:30:30;;;;;;;6.15;2.90;;;;;;;9.63;80.17;101245.13;4956814;28;20412;-48
2023/12/18 08:32:57;;;;;;;5.05;2.90;;;;;;;9.64;79.83;101246.91;4959823;28;20492;-46
2023/12/18 08:35:24;;;;;;;12.70;3.45;;;;;;;9.65;79.81;101252.91;4957639;28;20090;-47
2023/12/18 08:37:51;;;;;;;7.50;3.15;;;;;;;9.68;80.31;101254.69;4961837;28;20043;-45
2023/12/18 08:40:17;;;;;;;3.83;3.20;;;;;;;9.69;80.43;101253.88;4963786;28;20051;-45
2023/12/18 08:42:44;;;;;;;4.90;2.50;;;;;;;9.68;80.33;101258.16;4962227;28;20410;-49
2023/12/18 08:45:11;;;;;;;5.68;2.83;;;;;;;9.68;79.85;101258.16;4964395;28;20062;-47
2023/12/18 08:47:38;;;;;;;6.90;2.15;;;;;;;9.72;80.05;101251.31;4962582;28;20059;-47
2023/12/18 08:50:05;;;;;;;4.03;2.78;;;;;;;9.71;80.40;101247.88;4969686;28;20076;-49
2023/12/18 08:52:31;;;;;;;6.93;2.88;;;;;;;9.72;80.31;101244.44;4962840;28;20057;-47
2023/12/18 08:54:58;;;;;;;8.93;2.90;;;;;;;9.69;80.35;101244.38;4961534;28;20047;-54
2023/12/18 08:57:25;;;;;;;6.30;3.78;;;;;;;9.70;81.01;101242.69;4959403;28;20074;-53
2023/12/18 08:59:54;;;;;;;7.45;2.72;;;;;;;9.74;80.37;101236.72;4965187;28;20094;-45
2023/12/18 09:02:21;;;;;;;7.75;3.78;;;;;;;9.77;79.95;101236.78;4960275;28;20043;-50
2023/12/18 09:04:47;;;;;;;4.00;2.25;;;;;;;9.79;80.77;101244.59;4967888;28;20047;-51
2023/12/18 09:07:14;;;;;;;7.60;3.70;;;;;;;9.79;80.30;101239.41;4967465;28;20059;-46
2023/12/18 09:09:43;;;;;;;5.10;2.95;;;;;;;9.77;80.28;101229.88;4963570;28;20397;-54
2023/12/18 09:12:10;;;;;;;5.47;2.60;;;;;;;9.78;80.34;101230.75;4963319;28;20047;-48
2023/12/18 09:14:37;;;;;;;9.68;2.78;;;;;;;9.79;81.01;101223.88;4969790;28;20057;-46
2023/12/18 09:17:03;;;;;;;10.27;2.90;;;;;;;9.79;80.91;101229.06;4964986;28;20047;-49
2023/12/18 09:19:30;;;;;;;4.38;2.33;;;;;;;9.73;80.80;101215.13;4961131;28;20047;-50
2023/12/18 09:21:57;;;;;;;8.20;4.00;;;;;;;9.76;80.51;101225.56;4960690;28;20054;-48
2023/12/18 09:24:25;;;;;;;4.82;2.05;;;;;;;9.81;80.39;101219.59;4968609;28;20587;-51
2023/12/18 09:26:52;;;;;;;6.93;2.28;;;;;;;9.81;81.08;101223.06;4963151;28;20066;-54
2023/12/18 09:29:18;;;;;;;3.22;2.63;;;;;;;9.82;81.03;101217.03;4969356;28;20392;-52
2023/12/18 09:31:46;;;;;;;5.00;3.15;;;;;;;9.82;80.96;101213.56;4967667;28;20047;-46
2023/12/18 09:34:14;;;;;;;7.93;2.83;;;;;;;9.81;80.43;101217.91;4961633;28;20054;-53
2023/12/18 09:36:41;;;;;;;2.90;1.33;;;;;;;9.79;81.30;101213.53;4967888;28;20609;-58
2023/12/18 09:39:08;;;;;;;5.32;2.45;;;;;;;9.80;81.40;101210.97;4964276;28;20051;-52
2023/12/18 09:41:35;;;;;;;5.18;3.13;;;;;;;9.83;80.81;101205.00;4965819;28;20046;-50
2023/12/18 09:44:01;;;;;;;4.70;2.35;;;;;;;9.82;81.10;101208.41;4955824;28;20058;-47
2023/12/18 09:46:28;;;;;;;4.55;2.95;;;;;;;9.82;80.61;101203.22;4963421;28;20054;-48
2023/12/18 09:48:55;;;;;;;6.60;4.35;;;;;;;9.84;81.43;101206.72;4965023;28;20082;-55
2023/12/18 09:51:24;;;;;;;7.60;2.92;;;;;;;9.86;81.42;101212.81;4962570;28;20058;-54
2023/12/18 09:53:51;;;;;;;9.15;3.97;;;;;;;9.85;81.44;101211.94;4965759;28;20459;-53
2023/12/18 09:56:20;;;;;;;3.30;2.38;;;;;;;9.85;81.41;101203.28;4951989;28;20080;-48
2023/12/18 09:58:48;;;;;;;5.30;3.08;;;;;;;9.86;80.73;101199.88;4966420;28;20058;-53
2023/12/18 10:01:15;;;;;;;4.05;2.45;;;;;;;9.84;81.27;101199.84;4964943;28;20456;-45
2023/12/18 10:03:42;;;;;;;9.70;3.30;;;;;;;9.85;81.34;101198.09;4961503;28;20101;-45
2023/12/18 10:06:09;;;;;;;7.38;3.15;;;;;;;9.86;81.71;101197.28;4964651;28;20150;-46
2023/12/18 10:08:36;;;;;;;2.55;0.90;;;;;;;9.90;81.42;101207.69;4967313;28;20424;-52
2023/12/18 10:11:03;;;;;;;9.80;3.63;;;;;;;9.92;81.39;101205.16;4960883;28;20046;-54
2023/12/18 10:13:30;;;;;;;4.20;2.35;;;;;;;9.91;81.00;101203.41;4962714;28;20046;-51
2023/12/18 10:15:58;;;;;;;4.20;2.58;;;;;;;9.91;80.94;101198.22;4965828;28;20053;-49
2023/12/18 10:18:25;;;;;;;5.78;2.25;;;;;;;9.86;82.04;101199.88;4965923;28;20050;-47
2023/12/18 10:20:52;;;;;;;3.25;2.58;;;;;;;9.85;81.42;101203.28;4962564;28;20051;-47
2023/12/18 10:23:19;;;;;;;3.88;2.17;;;;;;;9.93;81.10;101195.69;4960701;28;20489;-47
2023/12/18 10:25:47;;;;;;;5.80;2.78;;;;;;;9.94;81.19;101185.34;4970044;28;20054;-50
2023/12/18 10:28:13;;;;;;;6.75;2.40;;;;;;;9.93;81.69;101186.19;4964335;28;20107;-51
2023/12/18 10:30:40;;;;;;;5.50;3.10;;;;;;;9.98;81.18;101179.38;4965349;28;20066;-48
2023/12/18 10:33:09;;;;;;;4.72;2.83;;;;;;;9.99;81.59;101180.25;4966443;28;20047;-50
2023/12/18 10:35:38;;;;;;;4.82;3.00;;;;;;;10.03;81.24;101166.50;4964917;28;20050;-49
2023/12/18 10:38:05;;;;;;;6.43;2.92;;;;;;;10.01;81.54;101155.28;4957916;28;20506;-48
2023/12/18 10:40:32;;;;;;;4.15;3.47;;;;;;;10.04;81.45;101160.50;4968374;28;20050;-44
2023/12/18 10:43:21;;;;;;;6.28;3.60;;;;;;;10.03;80.92;101162.22;4966463;28;20059;-50
2023/12/18 10:45:49;;;;;;;5.28;3.20;;;;;;;10.08;81.36;101164.91;4945992;28;20076;-47
2023/12/18 10:48:17;;;;;;;2.95;2.10;;;;;;;10.06;81.56;101157.94;4962679;28;20047;-51
2023/12/18 10:50:44;;;;;;;6.00;2.65;;;;;;;10.14;81.57;101148.59;4959638;28;20106;-46
2023/12/18 10:53:15;;;;;;;4.35;3.13;;;;;;;10.19;81.36;101172.84;4963840;28;20098;-48
2023/12/18 10:55:42;;;;;;;4.80;3.00;;;;;;;10.24;81.25;101170.31;4967921;28;20042;-42
2023/12/18 10:58:10;;;;;;;8.77;3.13;;;;;;;10.26;81.26;101179.88;4963383;28;20050;-50
2023/12/18 11:00:38;;;;;;;3.83;2.47;;;;;;;10.28;81.86;101183.38;4965958;28;20059;-50
2023/12/18 11:03:06;;;;;;;7.00;3.35;;;;;;;10.37;80.88;101176.59;4965808;28;20052;-51
2023/12/18 11:05:35;;;;;;;3.22;2.33;;;;;;;10.42;80.69;101172.34;4965845;28;20056;-44
2023/12/18 11:08:03;;;;;;;6.32;2.45;;;;;;;10.41;81.16;101152.47;4963912;28;20046;-50
2023/12/18 11:10:30;;;;;;;6.22;2.45;;;;;;;10.46;81.54;101158.63;4967391;28;20050;-53
2023/12/18 11:13:10;;;;;;;2.85;2.30;;;;;;;10.47;81.36;101162.94;4967555;28;20417;-50
2023/12/18 11:16:03;;;;;;;4.75;2.42;;;;;;;10.40;81.04;101135.19;4967136;28;20047;-50
2023/12/18 11:21:09;;;;;;;1.80;0.95;;;;;;;10.50;81.04;101106.03;5042474;28;20403;-48
2023/12/18 11:23:39;;;;;;;4.43;1.20;;;;;;;10.57;81.21;101100.94;5005249;28;20053;-50
2023/12/18 11:26:10;;;;;;;3.72;0.93;;;;;;;10.59;80.52;101089.75;5001961;28;20062;-47
2023/12/18 11:28:38;;;;;;;9.85;2.08;;;;;;;10.64;80.55;101080.31;5010469;28;20414;-46
2023/12/18 11:31:06;;;;;;;5.18;2.08;;;;;;;10.71;80.75;101089.03;5001324;28;20054;-47
2023/12/18 11:33:33;;;;;;;8.85;1.65;;;;;;;10.74;80.51;101114.97;5006229;28;20125;-44